sensor_id;sensor_type;location;lat;lon;timestamp;temperature;humidity
17178;DHT22;8704;52.006;4.374;2022-09-12T00:01:07;15.60;99.90
17178;DHT22;8704;52.006;4.374;2022-09-12T00:03:37;15.10;99.90
17178;DHT22;8704;52.006;4.374;2022-09-12T00:06:10;15.10;99.90
17178;DHT22;8704;52.006;4.374;2022-09-12T00:08:39;15.20;99.90
17178;DHT22;8704;52.006;4.374;2022-09-12T00:11:08;15.10;99.90
17178;DHT22;8704;52.006;4.374;2022-09-12T00:13:38;15.00;99.90
17178;DHT22;8704;52.006;4.374;2022-09-12T00:16:13;15.10;99.90
17178;DHT22;8704;52.006;4.374;2022-09-12T00:18:43;15.00;99.90
17178;DHT22;8704;52.006;4.374;2022-09-12T00:21:13;15.00;99.90
17178;DHT22;8704;52.006;4.374;2022-09-12T00:23:42;15.00;99.90
17178;DHT22;8704;52.006;4.374;2022-09-12T00:26:10;14.90;99.90
17178;DHT22;8704;52.006;4.374;2022-09-12T00:28:39;15.00;99.90
17178;DHT22;8704;52.006;4.374;2022-09-12T00:31:09;15.00;99.90
17178;DHT22;8704;52.006;4.374;2022-09-12T00:33:38;15.00;99.90
17178;DHT22;8704;52.006;4.374;2022-09-12T00:36:09;15.00;99.90
17178;DHT22;8704;52.006;4.374;2022-09-12T00:38:38;15.00;99.90
17178;DHT22;8704;52.006;4.374;2022-09-12T00:41:13;15.00;99.90
17178;DHT22;8704;52.006;4.374;2022-09-12T00:43:43;15.00;99.90
17178;DHT22;8704;52.006;4.374;2022-09-12T00:46:18;15.10;99.90
17178;DHT22;8704;52.006;4.374;2022-09-12T00:48:55;15.00;99.90
17178;DHT22;8704;52.006;4.374;2022-09-12T00:51:26;15.00;99.90
17178;DHT22;8704;52.006;4.374;2022-09-12T00:53:56;15.00;99.90
17178;DHT22;8704;52.006;4.374;2022-09-12T00:56:26;15.00;99.90
17178;DHT22;8704;52.006;4.374;2022-09-12T00:58:57;15.00;99.90
17178;DHT22;8704;52.006;4.374;2022-09-12T01:01:26;15.00;99.90
17178;DHT22;8704;52.006;4.374;2022-09-12T01:03:58;15.00;99.90
17178;DHT22;8704;52.006;4.374;2022-09-12T01:06:31;15.00;99.90
17178;DHT22;8704;52.006;4.374;2022-09-12T01:09:02;15.00;99.90
17178;DHT22;8704;52.006;4.374;2022-09-12T01:11:31;15.00;99.90
17178;DHT22;8704;52.006;4.374;2022-09-12T01:14:01;15.00;99.90
17178;DHT22;8704;52.006;4.374;2022-09-12T01:16:29;15.00;99.90
17178;DHT22;8704;52.006;4.374;2022-09-12T01:19:11;15.00;99.90
17178;DHT22;8704;52.006;4.374;2022-09-12T01:21:49;15.00;99.90
17178;DHT22;8704;52.006;4.374;2022-09-12T01:24:38;14.90;99.90
17178;DHT22;8704;52.006;4.374;2022-09-12T01:27:43;14.90;99.90
17178;DHT22;8704;52.006;4.374;2022-09-12T01:30:45;14.90;99.90
17178;DHT22;8704;52.006;4.374;2022-09-12T01:33:37;14.90;99.90
17178;DHT22;8704;52.006;4.374;2022-09-12T01:36:19;14.90;99.90
17178;DHT22;8704;52.006;4.374;2022-09-12T01:38:57;14.90;99.90
17178;DHT22;8704;52.006;4.374;2022-09-12T01:41:29;14.90;99.90
17178;DHT22;8704;52.006;4.374;2022-09-12T01:44:02;14.90;99.90
17178;DHT22;8704;52.006;4.374;2022-09-12T01:46:38;14.90;99.90
17178;DHT22;8704;52.006;4.374;2022-09-12T01:49:14;14.90;99.90
17178;DHT22;8704;52.006;4.374;2022-09-12T01:51:50;14.90;99.90
17178;DHT22;8704;52.006;4.374;2022-09-12T01:54:24;14.80;99.90
17178;DHT22;8704;52.006;4.374;2022-09-12T01:56:56;14.80;99.90
17178;DHT22;8704;52.006;4.374;2022-09-12T01:59:29;14.80;99.90
17178;DHT22;8704;52.006;4.374;2022-09-12T02:02:03;14.80;99.90
17178;DHT22;8704;52.006;4.374;2022-09-12T02:04:37;14.90;99.90
17178;DHT22;8704;52.006;4.374;2022-09-12T02:07:11;14.80;99.90
17178;DHT22;8704;52.006;4.374;2022-09-12T02:09:44;14.90;99.90
17178;DHT22;8704;52.006;4.374;2022-09-12T02:12:17;14.80;99.90
17178;DHT22;8704;52.006;4.374;2022-09-12T02:14:50;14.80;99.90
17178;DHT22;8704;52.006;4.374;2022-09-12T02:17:22;14.80;99.90
17178;DHT22;8704;52.006;4.374;2022-09-12T02:19:55;14.80;99.90
17178;DHT22;8704;52.006;4.374;2022-09-12T02:22:26;14.80;99.90
17178;DHT22;8704;52.006;4.374;2022-09-12T02:24:59;14.80;99.90
17178;DHT22;8704;52.006;4.374;2022-09-12T02:27:31;14.80;99.90
17178;DHT22;8704;52.006;4.374;2022-09-12T02:30:00;14.80;99.90
17178;DHT22;8704;52.006;4.374;2022-09-12T02:32:35;14.80;99.90
17178;DHT22;8704;52.006;4.374;2022-09-12T02:35:07;14.80;99.90
17178;DHT22;8704;52.006;4.374;2022-09-12T02:37:52;14.80;99.90
17178;DHT22;8704;52.006;4.374;2022-09-12T02:40:22;14.90;99.90
17178;DHT22;8704;52.006;4.374;2022-09-12T02:42:51;14.90;99.90
17178;DHT22;8704;52.006;4.374;2022-09-12T02:45:19;14.90;99.90
17178;DHT22;8704;52.006;4.374;2022-09-12T02:47:53;14.90;99.90
17178;DHT22;8704;52.006;4.374;2022-09-12T02:50:23;15.10;99.90
17178;DHT22;8704;52.006;4.374;2022-09-12T02:52:51;14.90;99.90
17178;DHT22;8704;52.006;4.374;2022-09-12T02:55:21;14.90;99.90
17178;DHT22;8704;52.006;4.374;2022-09-12T02:57:50;14.90;99.90
17178;DHT22;8704;52.006;4.374;2022-09-12T03:00:18;14.90;99.90
17178;DHT22;8704;52.006;4.374;2022-09-12T03:03:08;14.90;99.90
17178;DHT22;8704;52.006;4.374;2022-09-12T03:05:45;14.90;99.90
17178;DHT22;8704;52.006;4.374;2022-09-12T03:08:37;14.90;99.90
17178;DHT22;8704;52.006;4.374;2022-09-12T03:11:24;15.00;99.90
17178;DHT22;8704;52.006;4.374;2022-09-12T03:14:02;15.00;99.90
17178;DHT22;8704;52.006;4.374;2022-09-12T03:16:36;15.00;99.90
17178;DHT22;8704;52.006;4.374;2022-09-12T03:19:15;15.00;99.90
17178;DHT22;8704;52.006;4.374;2022-09-12T03:21:55;15.00;99.90
17178;DHT22;8704;52.006;4.374;2022-09-12T03:24:29;15.00;99.90
17178;DHT22;8704;52.006;4.374;2022-09-12T03:27:04;14.90;99.90
17178;DHT22;8704;52.006;4.374;2022-09-12T03:29:36;15.00;99.90
17178;DHT22;8704;52.006;4.374;2022-09-12T03:32:04;15.00;99.90
17178;DHT22;8704;52.006;4.374;2022-09-12T03:34:34;15.00;99.90
17178;DHT22;8704;52.006;4.374;2022-09-12T03:37:02;15.00;99.90
17178;DHT22;8704;52.006;4.374;2022-09-12T03:39:31;15.00;99.90
17178;DHT22;8704;52.006;4.374;2022-09-12T03:41:59;15.00;99.90
17178;DHT22;8704;52.006;4.374;2022-09-12T03:44:27;15.00;99.90
17178;DHT22;8704;52.006;4.374;2022-09-12T03:46:55;15.00;99.90
17178;DHT22;8704;52.006;4.374;2022-09-12T03:49:23;15.00;99.90
17178;DHT22;8704;52.006;4.374;2022-09-12T03:51:52;15.00;99.90
17178;DHT22;8704;52.006;4.374;2022-09-12T03:54:20;15.00;99.90
17178;DHT22;8704;52.006;4.374;2022-09-12T03:56:48;15.00;99.90
17178;DHT22;8704;52.006;4.374;2022-09-12T03:59:15;15.50;99.90
17178;DHT22;8704;52.006;4.374;2022-09-12T04:01:43;15.00;99.90
17178;DHT22;8704;52.006;4.374;2022-09-12T04:04:11;14.90;99.90
17178;DHT22;8704;52.006;4.374;2022-09-12T04:06:39;15.40;99.90
17178;DHT22;8704;52.006;4.374;2022-09-12T04:09:09;14.90;99.90
17178;DHT22;8704;52.006;4.374;2022-09-12T04:11:37;14.90;99.90
17178;DHT22;8704;52.006;4.374;2022-09-12T04:14:05;14.90;99.90
17178;DHT22;8704;52.006;4.374;2022-09-12T04:16:33;14.80;99.90
17178;DHT22;8704;52.006;4.374;2022-09-12T04:19:01;14.90;99.90
17178;DHT22;8704;52.006;4.374;2022-09-12T04:21:29;14.90;99.90
17178;DHT22;8704;52.006;4.374;2022-09-12T04:23:57;14.80;99.90
17178;DHT22;8704;52.006;4.374;2022-09-12T04:26:26;14.80;99.90
17178;DHT22;8704;52.006;4.374;2022-09-12T04:28:55;14.80;99.90
17178;DHT22;8704;52.006;4.374;2022-09-12T04:31:24;14.80;99.90
17178;DHT22;8704;52.006;4.374;2022-09-12T04:33:53;14.80;99.90
17178;DHT22;8704;52.006;4.374;2022-09-12T04:36:22;14.80;99.90
17178;DHT22;8704;52.006;4.374;2022-09-12T04:38:50;14.70;99.90
17178;DHT22;8704;52.006;4.374;2022-09-12T04:41:21;14.70;99.90
17178;DHT22;8704;52.006;4.374;2022-09-12T04:43:53;14.70;99.90
17178;DHT22;8704;52.006;4.374;2022-09-12T04:46:24;14.70;99.90
17178;DHT22;8704;52.006;4.374;2022-09-12T04:48:53;14.70;99.90
17178;DHT22;8704;52.006;4.374;2022-09-12T04:51:24;14.60;99.90
17178;DHT22;8704;52.006;4.374;2022-09-12T04:53:55;14.60;99.90
17178;DHT22;8704;52.006;4.374;2022-09-12T04:56:23;14.60;99.90
17178;DHT22;8704;52.006;4.374;2022-09-12T04:58:53;14.60;99.90
17178;DHT22;8704;52.006;4.374;2022-09-12T05:01:22;14.60;99.90
17178;DHT22;8704;52.006;4.374;2022-09-12T05:03:50;14.60;99.90
17178;DHT22;8704;52.006;4.374;2022-09-12T05:06:20;14.50;99.90
17178;DHT22;8704;52.006;4.374;2022-09-12T05:08:50;14.50;99.90
17178;DHT22;8704;52.006;4.374;2022-09-12T05:11:19;14.60;99.90
17178;DHT22;8704;52.006;4.374;2022-09-12T05:13:53;14.50;99.90
17178;DHT22;8704;52.006;4.374;2022-09-12T05:16:22;14.50;99.90
17178;DHT22;8704;52.006;4.374;2022-09-12T05:18:51;14.50;99.90
17178;DHT22;8704;52.006;4.374;2022-09-12T05:21:20;14.40;99.90
17178;DHT22;8704;52.006;4.374;2022-09-12T05:23:50;14.40;99.90
17178;DHT22;8704;52.006;4.374;2022-09-12T05:26:19;14.40;99.90
17178;DHT22;8704;52.006;4.374;2022-09-12T05:28:48;14.40;99.90
17178;DHT22;8704;52.006;4.374;2022-09-12T05:31:19;14.40;99.90
17178;DHT22;8704;52.006;4.374;2022-09-12T05:33:48;14.40;99.90
17178;DHT22;8704;52.006;4.374;2022-09-12T05:36:18;14.40;99.90
17178;DHT22;8704;52.006;4.374;2022-09-12T05:38:46;14.40;99.90
17178;DHT22;8704;52.006;4.374;2022-09-12T05:41:16;14.40;99.90
17178;DHT22;8704;52.006;4.374;2022-09-12T05:43:51;15.10;99.90
17178;DHT22;8704;52.006;4.374;2022-09-12T05:46:24;14.30;99.90
17178;DHT22;8704;52.006;4.374;2022-09-12T05:48:53;14.40;99.90
17178;DHT22;8704;52.006;4.374;2022-09-12T05:51:24;14.40;99.90
17178;DHT22;8704;52.006;4.374;2022-09-12T05:53:54;14.40;99.90
17178;DHT22;8704;52.006;4.374;2022-09-12T05:56:23;14.40;99.90
17178;DHT22;8704;52.006;4.374;2022-09-12T05:58:53;14.40;99.90
17178;DHT22;8704;52.006;4.374;2022-09-12T06:01:23;14.30;99.90
17178;DHT22;8704;52.006;4.374;2022-09-12T06:03:53;15.40;99.90
17178;DHT22;8704;52.006;4.374;2022-09-12T06:06:23;14.40;99.90
17178;DHT22;8704;52.006;4.374;2022-09-12T06:08:54;14.40;99.90
17178;DHT22;8704;52.006;4.374;2022-09-12T06:11:26;14.40;99.90
17178;DHT22;8704;52.006;4.374;2022-09-12T06:13:55;14.40;99.90
17178;DHT22;8704;52.006;4.374;2022-09-12T06:16:26;14.40;99.90
17178;DHT22;8704;52.006;4.374;2022-09-12T06:18:56;14.40;99.90
17178;DHT22;8704;52.006;4.374;2022-09-12T06:21:25;14.50;99.90
17178;DHT22;8704;52.006;4.374;2022-09-12T06:23:54;14.40;99.90
17178;DHT22;8704;52.006;4.374;2022-09-12T06:26:22;14.50;99.90
17178;DHT22;8704;52.006;4.374;2022-09-12T06:28:52;14.60;99.90
17178;DHT22;8704;52.006;4.374;2022-09-12T06:31:22;14.50;99.90
17178;DHT22;8704;52.006;4.374;2022-09-12T06:33:53;14.60;99.90
17178;DHT22;8704;52.006;4.374;2022-09-12T06:36:22;14.70;99.90
17178;DHT22;8704;52.006;4.374;2022-09-12T06:38:53;14.80;99.90
17178;DHT22;8704;52.006;4.374;2022-09-12T06:41:22;14.80;99.90
17178;DHT22;8704;52.006;4.374;2022-09-12T06:43:51;14.90;99.90
17178;DHT22;8704;52.006;4.374;2022-09-12T06:46:20;14.90;99.90
17178;DHT22;8704;52.006;4.374;2022-09-12T06:48:48;15.20;99.90
17178;DHT22;8704;52.006;4.374;2022-09-12T06:51:19;15.20;99.90
17178;DHT22;8704;52.006;4.374;2022-09-12T06:53:48;15.20;99.90
17178;DHT22;8704;52.006;4.374;2022-09-12T06:56:17;15.40;99.90
17178;DHT22;8704;52.006;4.374;2022-09-12T06:58:47;15.20;99.90
17178;DHT22;8704;52.006;4.374;2022-09-12T07:01:17;15.30;99.90
17178;DHT22;8704;52.006;4.374;2022-09-12T07:03:48;15.20;99.90
17178;DHT22;8704;52.006;4.374;2022-09-12T07:06:19;15.30;99.90
17178;DHT22;8704;52.006;4.374;2022-09-12T07:08:47;15.30;99.90
17178;DHT22;8704;52.006;4.374;2022-09-12T07:11:17;15.40;99.90
17178;DHT22;8704;52.006;4.374;2022-09-12T07:13:47;15.40;99.90
17178;DHT22;8704;52.006;4.374;2022-09-12T07:16:15;15.50;99.90
17178;DHT22;8704;52.006;4.374;2022-09-12T07:18:49;15.50;99.90
17178;DHT22;8704;52.006;4.374;2022-09-12T07:21:19;15.60;99.90
17178;DHT22;8704;52.006;4.374;2022-09-12T07:23:47;15.70;99.90
17178;DHT22;8704;52.006;4.374;2022-09-12T07:26:17;15.70;99.90
17178;DHT22;8704;52.006;4.374;2022-09-12T07:28:49;15.80;99.90
17178;DHT22;8704;52.006;4.374;2022-09-12T07:31:18;15.80;99.90
17178;DHT22;8704;52.006;4.374;2022-09-12T07:33:46;15.90;99.90
17178;DHT22;8704;52.006;4.374;2022-09-12T07:36:23;16.00;99.90
17178;DHT22;8704;52.006;4.374;2022-09-12T07:38:54;16.00;99.90
17178;DHT22;8704;52.006;4.374;2022-09-12T07:41:24;16.10;99.90
17178;DHT22;8704;52.006;4.374;2022-09-12T07:43:54;16.10;99.90
17178;DHT22;8704;52.006;4.374;2022-09-12T07:46:22;15.30;99.90
17178;DHT22;8704;52.006;4.374;2022-09-12T07:48:51;16.20;99.90
17178;DHT22;8704;52.006;4.374;2022-09-12T07:51:21;16.50;99.90
17178;DHT22;8704;52.006;4.374;2022-09-12T07:53:52;17.10;99.90
17178;DHT22;8704;52.006;4.374;2022-09-12T07:56:22;16.50;99.90
17178;DHT22;8704;52.006;4.374;2022-09-12T07:58:56;16.60;99.90
17178;DHT22;8704;52.006;4.374;2022-09-12T08:01:24;16.70;99.90
17178;DHT22;8704;52.006;4.374;2022-09-12T08:03:54;16.70;99.90
17178;DHT22;8704;52.006;4.374;2022-09-12T08:06:26;17.00;99.90
17178;DHT22;8704;52.006;4.374;2022-09-12T08:08:56;16.90;99.90
17178;DHT22;8704;52.006;4.374;2022-09-12T08:11:26;17.00;99.90
17178;DHT22;8704;52.006;4.374;2022-09-12T08:13:55;17.10;99.90
17178;DHT22;8704;52.006;4.374;2022-09-12T08:16:26;17.20;99.90
17178;DHT22;8704;52.006;4.374;2022-09-12T08:18:54;17.20;99.90
17178;DHT22;8704;52.006;4.374;2022-09-12T08:21:25;17.30;99.90
17178;DHT22;8704;52.006;4.374;2022-09-12T08:23:55;17.80;99.90
17178;DHT22;8704;52.006;4.374;2022-09-12T08:26:24;18.30;99.90
17178;DHT22;8704;52.006;4.374;2022-09-12T08:28:52;17.50;99.90
17178;DHT22;8704;52.006;4.374;2022-09-12T08:31:21;17.60;99.90
17178;DHT22;8704;52.006;4.374;2022-09-12T08:33:50;17.70;99.90
17178;DHT22;8704;52.006;4.374;2022-09-12T08:36:19;17.70;99.90
17178;DHT22;8704;52.006;4.374;2022-09-12T08:38:52;17.80;99.90
17178;DHT22;8704;52.006;4.374;2022-09-12T08:41:28;17.80;99.90
17178;DHT22;8704;52.006;4.374;2022-09-12T08:47:17;17.90;99.90
17178;DHT22;8704;52.006;4.374;2022-09-12T08:50:02;18.10;99.90
17178;DHT22;8704;52.006;4.374;2022-09-12T08:52:36;18.10;99.90
17178;DHT22;8704;52.006;4.374;2022-09-12T08:55:21;18.20;99.90
17178;DHT22;8704;52.006;4.374;2022-09-12T08:57:50;18.40;99.90
17178;DHT22;8704;52.006;4.374;2022-09-12T09:00:19;18.30;99.90
17178;DHT22;8704;52.006;4.374;2022-09-12T09:03:13;18.30;99.90
17178;DHT22;8704;52.006;4.374;2022-09-12T09:05:49;18.50;99.90
17178;DHT22;8704;52.006;4.374;2022-09-12T09:08:45;18.60;99.90
17178;DHT22;8704;52.006;4.374;2022-09-12T09:11:31;18.60;99.90
17178;DHT22;8704;52.006;4.374;2022-09-12T09:14:17;18.70;99.90
17178;DHT22;8704;52.006;4.374;2022-09-12T09:17:09;18.80;99.90
17178;DHT22;8704;52.006;4.374;2022-09-12T09:19:43;19.30;99.90
17178;DHT22;8704;52.006;4.374;2022-09-12T09:22:25;18.90;99.90
17178;DHT22;8704;52.006;4.374;2022-09-12T09:24:58;19.10;99.90
17178;DHT22;8704;52.006;4.374;2022-09-12T09:27:34;19.10;99.90
17178;DHT22;8704;52.006;4.374;2022-09-12T09:30:12;19.30;99.90
17178;DHT22;8704;52.006;4.374;2022-09-12T09:32:41;19.20;99.90
17178;DHT22;8704;52.006;4.374;2022-09-12T09:35:15;19.30;99.90
17178;DHT22;8704;52.006;4.374;2022-09-12T09:37:45;19.40;99.90
17178;DHT22;8704;52.006;4.374;2022-09-12T09:40:28;19.40;99.90
17178;DHT22;8704;52.006;4.374;2022-09-12T09:43:04;19.60;99.90
17178;DHT22;8704;52.006;4.374;2022-09-12T09:45:33;19.50;99.90
17178;DHT22;8704;52.006;4.374;2022-09-12T09:48:12;19.80;99.90
17178;DHT22;8704;52.006;4.374;2022-09-12T09:50:42;19.70;99.90
17178;DHT22;8704;52.006;4.374;2022-09-12T09:53:28;19.80;99.90
17178;DHT22;8704;52.006;4.374;2022-09-12T09:56:02;19.90;99.90
17178;DHT22;8704;52.006;4.374;2022-09-12T09:58:33;20.00;99.90
17178;DHT22;8704;52.006;4.374;2022-09-12T10:01:03;20.10;99.90
17178;DHT22;8704;52.006;4.374;2022-09-12T10:03:33;20.20;99.90
17178;DHT22;8704;52.006;4.374;2022-09-12T10:06:22;21.10;99.90
17178;DHT22;8704;52.006;4.374;2022-09-12T10:09:09;20.50;99.90
17178;DHT22;8704;52.006;4.374;2022-09-12T10:11:43;20.50;99.90
17178;DHT22;8704;52.006;4.374;2022-09-12T10:14:32;20.70;99.90
17178;DHT22;8704;52.006;4.374;2022-09-12T10:17:02;20.60;99.90
17178;DHT22;8704;52.006;4.374;2022-09-12T10:19:36;20.70;99.90
17178;DHT22;8704;52.006;4.374;2022-09-12T10:22:05;20.60;99.90
17178;DHT22;8704;52.006;4.374;2022-09-12T10:24:35;20.50;99.90
17178;DHT22;8704;52.006;4.374;2022-09-12T10:27:08;20.70;99.90
17178;DHT22;8704;52.006;4.374;2022-09-12T10:29:43;20.70;99.90
17178;DHT22;8704;52.006;4.374;2022-09-12T10:32:21;21.00;99.90
17178;DHT22;8704;52.006;4.374;2022-09-12T10:34:59;21.00;99.90
17178;DHT22;8704;52.006;4.374;2022-09-12T10:37:30;21.10;99.90
17178;DHT22;8704;52.006;4.374;2022-09-12T10:40:00;21.30;99.90
17178;DHT22;8704;52.006;4.374;2022-09-12T10:42:45;21.20;99.90
17178;DHT22;8704;52.006;4.374;2022-09-12T10:45:20;21.80;99.90
17178;DHT22;8704;52.006;4.374;2022-09-12T10:47:49;21.50;92.80
17178;DHT22;8704;52.006;4.374;2022-09-12T10:50:23;21.50;54.00
17178;DHT22;8704;52.006;4.374;2022-09-12T10:52:52;21.70;99.50
17178;DHT22;8704;52.006;4.374;2022-09-12T10:55:24;21.80;98.10
17178;DHT22;8704;52.006;4.374;2022-09-12T10:58:15;21.90;55.60
17178;DHT22;8704;52.006;4.374;2022-09-12T11:00:54;22.00;43.00
17178;DHT22;8704;52.006;4.374;2022-09-12T11:03:36;22.10;99.90
17178;DHT22;8704;52.006;4.374;2022-09-12T11:06:08;22.10;67.30
17178;DHT22;8704;52.006;4.374;2022-09-12T11:08:47;22.20;29.10
17178;DHT22;8704;52.006;4.374;2022-09-12T11:11:33;22.50;36.00
17178;DHT22;8704;52.006;4.374;2022-09-12T11:14:16;22.20;37.50
17178;DHT22;8704;52.006;4.374;2022-09-12T11:16:54;22.30;20.70
17178;DHT22;8704;52.006;4.374;2022-09-12T11:19:39;22.60;65.50
17178;DHT22;8704;52.006;4.374;2022-09-12T11:22:22;22.70;7.10
17178;DHT22;8704;52.006;4.374;2022-09-12T11:25:12;22.70;56.00
17178;DHT22;8704;52.006;4.374;2022-09-12T11:27:57;22.60;36.10
17178;DHT22;8704;52.006;4.374;2022-09-12T11:30:35;22.90;43.90
17178;DHT22;8704;52.006;4.374;2022-09-12T11:33:23;23.00;24.00
17178;DHT22;8704;52.006;4.374;2022-09-12T11:35:53;23.00;1.00
17178;DHT22;8704;52.006;4.374;2022-09-12T11:38:36;23.30;42.70
17178;DHT22;8704;52.006;4.374;2022-09-12T11:41:13;23.40;1.00
17178;DHT22;8704;52.006;4.374;2022-09-12T11:43:47;23.40;1.00
17178;DHT22;8704;52.006;4.374;2022-09-12T11:46:21;23.60;1.00
17178;DHT22;8704;52.006;4.374;2022-09-12T11:48:55;23.70;1.00
17178;DHT22;8704;52.006;4.374;2022-09-12T11:51:26;23.80;1.00
17178;DHT22;8704;52.006;4.374;2022-09-12T11:54:02;23.80;99.90
17178;DHT22;8704;52.006;4.374;2022-09-12T11:56:33;23.80;1.00
17178;DHT22;8704;52.006;4.374;2022-09-12T11:59:13;23.80;91.90
17178;DHT22;8704;52.006;4.374;2022-09-12T12:01:43;24.10;1.00
17178;DHT22;8704;52.006;4.374;2022-09-12T12:04:19;24.10;28.20
17178;DHT22;8704;52.006;4.374;2022-09-12T12:06:51;24.30;1.00
17178;DHT22;8704;52.006;4.374;2022-09-12T12:09:21;24.40;1.00
17178;DHT22;8704;52.006;4.374;2022-09-12T12:11:52;24.50;99.90
17178;DHT22;8704;52.006;4.374;2022-09-12T12:14:24;24.60;1.00
17178;DHT22;8704;52.006;4.374;2022-09-12T12:16:53;24.80;1.00
17178;DHT22;8704;52.006;4.374;2022-09-12T12:19:32;24.80;1.00
17178;DHT22;8704;52.006;4.374;2022-09-12T12:22:14;25.00;1.00
17178;DHT22;8704;52.006;4.374;2022-09-12T12:25:00;25.10;99.90
17178;DHT22;8704;52.006;4.374;2022-09-12T12:27:47;25.10;99.90
17178;DHT22;8704;52.006;4.374;2022-09-12T12:33:54;25.00;1.00
17178;DHT22;8704;52.006;4.374;2022-09-12T12:36:42;25.30;99.90
17178;DHT22;8704;52.006;4.374;2022-09-12T12:43:02;25.40;1.00
17178;DHT22;8704;52.006;4.374;2022-09-12T12:46:05;25.60;99.90
17178;DHT22;8704;52.006;4.374;2022-09-12T12:48:52;25.60;1.00
17178;DHT22;8704;52.006;4.374;2022-09-12T12:51:55;25.60;1.00
17178;DHT22;8704;52.006;4.374;2022-09-12T12:54:49;25.70;1.00
17178;DHT22;8704;52.006;4.374;2022-09-12T12:57:26;25.90;99.90
17178;DHT22;8704;52.006;4.374;2022-09-12T12:59:58;26.20;99.90
17178;DHT22;8704;52.006;4.374;2022-09-12T13:02:28;26.30;99.90
17178;DHT22;8704;52.006;4.374;2022-09-12T13:04:59;26.40;1.00
17178;DHT22;8704;52.006;4.374;2022-09-12T13:07:43;26.60;1.00
17178;DHT22;8704;52.006;4.374;2022-09-12T13:10:21;26.40;99.90
17178;DHT22;8704;52.006;4.374;2022-09-12T13:12:51;26.50;99.90
17178;DHT22;8704;52.006;4.374;2022-09-12T13:15:47;26.70;99.90
17178;DHT22;8704;52.006;4.374;2022-09-12T13:18:19;26.90;99.90
17178;DHT22;8704;52.006;4.374;2022-09-12T13:20:54;27.30;99.90
17178;DHT22;8704;52.006;4.374;2022-09-12T13:23:26;27.30;99.90
17178;DHT22;8704;52.006;4.374;2022-09-12T13:25:56;27.60;99.90
17178;DHT22;8704;52.006;4.374;2022-09-12T13:28:25;27.60;99.90
17178;DHT22;8704;52.006;4.374;2022-09-12T13:30:58;28.00;99.90
17178;DHT22;8704;52.006;4.374;2022-09-12T13:33:34;28.10;80.80
17178;DHT22;8704;52.006;4.374;2022-09-12T13:39:13;28.30;1.00
17178;DHT22;8704;52.006;4.374;2022-09-12T13:42:01;28.60;21.40
17178;DHT22;8704;52.006;4.374;2022-09-12T13:44:41;28.60;4.00
17178;DHT22;8704;52.006;4.374;2022-09-12T13:47:13;28.80;1.20
17178;DHT22;8704;52.006;4.374;2022-09-12T13:49:43;29.00;1.00
17178;DHT22;8704;52.006;4.374;2022-09-12T13:52:16;29.10;1.00
17178;DHT22;8704;52.006;4.374;2022-09-12T13:54:49;29.10;1.00
17178;DHT22;8704;52.006;4.374;2022-09-12T13:57:30;29.40;1.00
17178;DHT22;8704;52.006;4.374;2022-09-12T13:59:59;29.30;1.00
17178;DHT22;8704;52.006;4.374;2022-09-12T14:02:28;29.30;1.00
17178;DHT22;8704;52.006;4.374;2022-09-12T14:04:57;29.70;1.00
17178;DHT22;8704;52.006;4.374;2022-09-12T14:07:52;29.70;1.00
17178;DHT22;8704;52.006;4.374;2022-09-12T14:10:27;29.90;1.00
17178;DHT22;8704;52.006;4.374;2022-09-12T14:12:58;29.90;1.00
17178;DHT22;8704;52.006;4.374;2022-09-12T14:15:29;29.90;1.00
17178;DHT22;8704;52.006;4.374;2022-09-12T14:17:59;29.80;1.00
17178;DHT22;8704;52.006;4.374;2022-09-12T14:20:29;29.60;1.00
17178;DHT22;8704;52.006;4.374;2022-09-12T14:23:00;29.70;1.00
17178;DHT22;8704;52.006;4.374;2022-09-12T14:25:35;29.70;1.00
17178;DHT22;8704;52.006;4.374;2022-09-12T14:28:05;29.90;1.00
17178;DHT22;8704;52.006;4.374;2022-09-12T14:30:34;29.90;1.00
17178;DHT22;8704;52.006;4.374;2022-09-12T14:33:17;29.70;1.00
17178;DHT22;8704;52.006;4.374;2022-09-12T14:35:47;29.90;1.00
17178;DHT22;8704;52.006;4.374;2022-09-12T14:38:21;29.80;1.00
17178;DHT22;8704;52.006;4.374;2022-09-12T14:40:59;30.00;1.00
17178;DHT22;8704;52.006;4.374;2022-09-12T14:43:29;30.00;1.00
17178;DHT22;8704;52.006;4.374;2022-09-12T14:46:00;30.00;1.00
17178;DHT22;8704;52.006;4.374;2022-09-12T14:48:31;30.30;1.00
17178;DHT22;8704;52.006;4.374;2022-09-12T14:51:02;30.20;1.00
17178;DHT22;8704;52.006;4.374;2022-09-12T14:53:32;30.60;1.00
17178;DHT22;8704;52.006;4.374;2022-09-12T14:56:10;30.90;1.00
17178;DHT22;8704;52.006;4.374;2022-09-12T14:58:40;30.80;1.00
17178;DHT22;8704;52.006;4.374;2022-09-12T15:01:29;30.60;1.00
17178;DHT22;8704;52.006;4.374;2022-09-12T15:03:57;30.90;1.00
17178;DHT22;8704;52.006;4.374;2022-09-12T15:06:27;30.50;1.00
17178;DHT22;8704;52.006;4.374;2022-09-12T15:08:57;30.60;1.00
17178;DHT22;8704;52.006;4.374;2022-09-12T15:11:28;30.90;1.00
17178;DHT22;8704;52.006;4.374;2022-09-12T15:13:56;31.00;1.00
17178;DHT22;8704;52.006;4.374;2022-09-12T15:16:24;30.90;1.00
17178;DHT22;8704;52.006;4.374;2022-09-12T15:18:52;31.10;1.00
17178;DHT22;8704;52.006;4.374;2022-09-12T15:21:20;30.90;1.00
17178;DHT22;8704;52.006;4.374;2022-09-12T15:23:49;30.90;1.00
17178;DHT22;8704;52.006;4.374;2022-09-12T15:26:19;30.70;1.00
17178;DHT22;8704;52.006;4.374;2022-09-12T15:28:49;30.70;1.00
17178;DHT22;8704;52.006;4.374;2022-09-12T15:31:22;30.70;1.00
17178;DHT22;8704;52.006;4.374;2022-09-12T15:33:51;31.00;1.00
17178;DHT22;8704;52.006;4.374;2022-09-12T15:36:20;31.00;1.00
17178;DHT22;8704;52.006;4.374;2022-09-12T15:38:51;30.90;1.00
17178;DHT22;8704;52.006;4.374;2022-09-12T15:41:20;30.50;1.00
17178;DHT22;8704;52.006;4.374;2022-09-12T15:43:50;30.10;1.00
17178;DHT22;8704;52.006;4.374;2022-09-12T15:46:18;29.80;1.00
17178;DHT22;8704;52.006;4.374;2022-09-12T15:48:46;29.80;1.00
17178;DHT22;8704;52.006;4.374;2022-09-12T15:51:16;30.00;1.00
17178;DHT22;8704;52.006;4.374;2022-09-12T15:53:45;29.80;1.00
17178;DHT22;8704;52.006;4.374;2022-09-12T15:56:15;29.50;1.00
17178;DHT22;8704;52.006;4.374;2022-09-12T15:58:44;29.20;1.00
17178;DHT22;8704;52.006;4.374;2022-09-12T16:01:26;28.90;1.00
17178;DHT22;8704;52.006;4.374;2022-09-12T16:03:55;28.70;1.00
17178;DHT22;8704;52.006;4.374;2022-09-12T16:06:23;28.80;1.00
17178;DHT22;8704;52.006;4.374;2022-09-12T16:08:51;28.80;1.00
17178;DHT22;8704;52.006;4.374;2022-09-12T16:11:21;28.50;1.00
17178;DHT22;8704;52.006;4.374;2022-09-12T16:13:51;28.60;1.00
17178;DHT22;8704;52.006;4.374;2022-09-12T16:16:19;28.40;1.00
17178;DHT22;8704;52.006;4.374;2022-09-12T16:18:49;28.20;1.00
17178;DHT22;8704;52.006;4.374;2022-09-12T16:21:17;27.90;1.00
17178;DHT22;8704;52.006;4.374;2022-09-12T16:23:46;28.00;1.00
17178;DHT22;8704;52.006;4.374;2022-09-12T16:26:14;28.10;1.00
17178;DHT22;8704;52.006;4.374;2022-09-12T16:28:42;28.10;1.00
17178;DHT22;8704;52.006;4.374;2022-09-12T16:31:12;27.70;1.00
17178;DHT22;8704;52.006;4.374;2022-09-12T16:33:40;27.60;1.00
17178;DHT22;8704;52.006;4.374;2022-09-12T16:36:13;27.50;1.00
17178;DHT22;8704;52.006;4.374;2022-09-12T16:38:41;27.50;1.00
17178;DHT22;8704;52.006;4.374;2022-09-12T16:41:10;27.20;1.00